sensor_id;sensor_type;location;lat;lon;timestamp;temperature;humidity
71117;SHT31;58775;46.992;9.518;2023-08-30T07:53:22;18.73;75.37
71117;SHT31;58775;46.992;9.518;2023-08-30T07:55:30;19.51;73.65
71117;SHT31;58775;46.992;9.518;2023-08-30T07:57:34;20.06;73.92
71117;SHT31;58775;46.992;9.518;2023-08-30T08:00:07;20.55;70.95
71117;SHT31;58775;46.992;9.518;2023-08-30T08:06:09;21.00;69.23
71117;SHT31;58775;46.992;9.518;2023-08-30T08:12:05;21.25;65.78
71117;SHT31;58775;46.992;9.518;2023-08-30T08:14:23;21.64;65.48
71117;SHT31;58775;46.992;9.518;2023-08-30T08:16:24;21.69;64.97
71117;SHT31;58775;46.992;9.518;2023-08-30T08:18:25;22.47;65.31
71117;SHT31;58775;46.992;9.518;2023-08-30T08:20:28;22.69;63.41
71117;SHT31;58775;46.992;9.518;2023-08-30T08:22:29;22.86;62.79
71117;SHT31;58775;46.992;9.518;2023-08-30T08:24:30;22.38;67.42
71117;SHT31;58775;46.992;9.518;2023-08-30T08:26:31;22.99;63.15
71117;SHT31;58775;46.992;9.518;2023-08-30T08:28:32;22.99;62.07
71117;SHT31;58775;46.992;9.518;2023-08-30T08:30:33;23.10;63.13
71117;SHT31;58775;46.992;9.518;2023-08-30T08:32:34;23.33;59.64
71117;SHT31;58775;46.992;9.518;2023-08-30T08:34:35;23.62;60.02
71117;SHT31;58775;46.992;9.518;2023-08-30T08:36:40;23.82;59.66
71117;SHT31;58775;46.992;9.518;2023-08-30T08:38:48;24.00;58.79
71117;SHT31;58775;46.992;9.518;2023-08-30T08:40:53;23.53;57.05
71117;SHT31;58775;46.992;9.518;2023-08-30T08:43:01;23.81;58.27
71117;SHT31;58775;46.992;9.518;2023-08-30T08:45:06;23.98;58.65
71117;SHT31;58775;46.992;9.518;2023-08-30T08:47:08;23.78;57.91
71117;SHT31;58775;46.992;9.518;2023-08-30T08:59:31;26.15;56.48
71117;SHT31;58775;46.992;9.518;2023-08-30T09:02:42;25.76;54.11
71117;SHT31;58775;46.992;9.518;2023-08-30T09:04:52;25.65;55.03
71117;SHT31;58775;46.992;9.518;2023-08-30T09:06:54;26.02;56.61
71117;SHT31;58775;46.992;9.518;2023-08-30T09:08:56;25.37;54.26
71117;SHT31;58775;46.992;9.518;2023-08-30T09:11:04;25.57;53.83
71117;SHT31;58775;46.992;9.518;2023-08-30T09:13:30;26.06;54.06
71117;SHT31;58775;46.992;9.518;2023-08-30T09:16:10;26.27;54.82
71117;SHT31;58775;46.992;9.518;2023-08-30T09:24:57;25.99;54.04
71117;SHT31;58775;46.992;9.518;2023-08-30T09:27:36;26.12;54.45
71117;SHT31;58775;46.992;9.518;2023-08-30T10:58:07;25.89;49.55
71117;SHT31;58775;46.992;9.518;2023-08-30T11:04:03;25.49;54.43
71117;SHT31;58775;46.992;9.518;2023-08-30T11:35:55;25.66;51.31
71117;SHT31;58775;46.992;9.518;2023-08-30T11:37:57;25.90;50.73
71117;SHT31;58775;46.992;9.518;2023-08-30T11:40:00;26.58;50.26
71117;SHT31;58775;46.992;9.518;2023-08-30T11:42:03;26.98;51.76
71117;SHT31;58775;46.992;9.518;2023-08-30T11:44:06;27.12;50.73
71117;SHT31;58775;46.992;9.518;2023-08-30T11:46:08;27.07;49.43
71117;SHT31;58775;46.992;9.518;2023-08-30T11:48:09;27.09;50.83
71117;SHT31;58775;46.992;9.518;2023-08-30T11:50:10;27.02;51.65
71117;SHT31;58775;46.992;9.518;2023-08-30T11:52:13;27.12;51.76
71117;SHT31;58775;46.992;9.518;2023-08-30T11:54:15;27.70;51.79
71117;SHT31;58775;46.992;9.518;2023-08-30T11:56:16;27.28;50.69
71117;SHT31;58775;46.992;9.518;2023-08-30T11:58:20;26.83;51.59
71117;SHT31;58775;46.992;9.518;2023-08-30T12:00:42;26.92;52.38
71117;SHT31;58775;46.992;9.518;2023-08-30T12:02:44;26.60;50.78
71117;SHT31;58775;46.992;9.518;2023-08-30T12:04:47;26.94;51.03
71117;SHT31;58775;46.992;9.518;2023-08-30T12:06:56;25.84;52.18
71117;SHT31;58775;46.992;9.518;2023-08-30T12:09:00;25.76;53.46
71117;SHT31;58775;46.992;9.518;2023-08-30T12:11:18;25.13;53.92
71117;SHT31;58775;46.992;9.518;2023-08-30T12:13:28;24.67;56.03
71117;SHT31;58775;46.992;9.518;2023-08-30T12:16:00;24.77;55.34
71117;SHT31;58775;46.992;9.518;2023-08-30T12:18:36;25.04;54.75
71117;SHT31;58775;46.992;9.518;2023-08-30T12:20:57;24.82;54.58
71117;SHT31;58775;46.992;9.518;2023-08-30T12:26:12;23.24;57.30
71117;SHT31;58775;46.992;9.518;2023-08-30T12:31:40;22.55;59.95
71117;SHT31;58775;46.992;9.518;2023-08-30T12:33:59;22.49;60.01
71117;SHT31;58775;46.992;9.518;2023-08-30T12:36:17;22.39;60.60
71117;SHT31;58775;46.992;9.518;2023-08-30T12:38:34;22.24;60.45
71117;SHT31;58775;46.992;9.518;2023-08-30T12:44:11;21.87;61.67
71117;SHT31;58775;46.992;9.518;2023-08-30T12:46:40;21.33;63.09
71117;SHT31;58775;46.992;9.518;2023-08-30T12:48:46;21.37;62.52
71117;SHT31;58775;46.992;9.518;2023-08-30T12:50:48;21.26;63.20
71117;SHT31;58775;46.992;9.518;2023-08-30T12:52:49;21.32;63.17
71117;SHT31;58775;46.992;9.518;2023-08-30T12:54:50;21.30;63.66
71117;SHT31;58775;46.992;9.518;2023-08-30T12:57:15;21.32;63.59
71117;SHT31;58775;46.992;9.518;2023-08-30T12:59:22;21.16;63.89
71117;SHT31;58775;46.992;9.518;2023-08-30T13:01:44;21.15;64.08
71117;SHT31;58775;46.992;9.518;2023-08-30T13:03:53;20.78;64.82
71117;SHT31;58775;46.992;9.518;2023-08-30T13:06:17;20.78;63.75
71117;SHT31;58775;46.992;9.518;2023-08-30T13:08:18;20.12;64.63
71117;SHT31;58775;46.992;9.518;2023-08-30T13:10:19;20.23;64.46
71117;SHT31;58775;46.992;9.518;2023-08-30T13:12:22;20.26;65.96
71117;SHT31;58775;46.992;9.518;2023-08-30T13:14:32;20.23;65.44
71117;SHT31;58775;46.992;9.518;2023-08-30T13:16:54;20.41;65.61
71117;SHT31;58775;46.992;9.518;2023-08-30T13:18:58;20.14;67.18
71117;SHT31;58775;46.992;9.518;2023-08-30T13:21:04;19.69;66.81
71117;SHT31;58775;46.992;9.518;2023-08-30T13:23:15;19.58;67.15
71117;SHT31;58775;46.992;9.518;2023-08-30T13:25:43;19.56;65.76
71117;SHT31;58775;46.992;9.518;2023-08-30T13:27:56;19.61;67.75
71117;SHT31;58775;46.992;9.518;2023-08-30T13:30:00;19.58;67.49
71117;SHT31;58775;46.992;9.518;2023-08-30T13:32:12;19.89;66.79
71117;SHT31;58775;46.992;9.518;2023-08-30T13:34:13;19.85;66.57
71117;SHT31;58775;46.992;9.518;2023-08-30T13:36:14;19.96;67.31
71117;SHT31;58775;46.992;9.518;2023-08-30T13:38:23;20.03;65.63
71117;SHT31;58775;46.992;9.518;2023-08-30T13:40:47;19.73;71.40
71117;SHT31;58775;46.992;9.518;2023-08-30T13:43:34;19.42;67.41
71117;SHT31;58775;46.992;9.518;2023-08-30T13:45:39;19.44;73.38
71117;SHT31;58775;46.992;9.518;2023-08-30T13:47:52;19.62;67.82
71117;SHT31;58775;46.992;9.518;2023-08-30T13:50:10;19.69;68.51
71117;SHT31;58775;46.992;9.518;2023-08-30T13:52:11;19.48;74.33
71117;SHT31;58775;46.992;9.518;2023-08-30T13:54:35;19.59;71.80
71117;SHT31;58775;46.992;9.518;2023-08-30T13:56:39;19.75;68.18
71117;SHT31;58775;46.992;9.518;2023-08-30T13:58:43;19.14;74.42
71117;SHT31;58775;46.992;9.518;2023-08-30T14:00:44;19.08;73.06
71117;SHT31;58775;46.992;9.518;2023-08-30T14:02:49;19.14;70.81
71117;SHT31;58775;46.992;9.518;2023-08-30T14:04:49;19.25;68.24
71117;SHT31;58775;46.992;9.518;2023-08-30T14:06:53;18.87;68.20
71117;SHT31;58775;46.992;9.518;2023-08-30T14:08:54;19.19;66.11
71117;SHT31;58775;46.992;9.518;2023-08-30T14:10:55;19.28;69.75
71117;SHT31;58775;46.992;9.518;2023-08-30T14:13:01;19.28;70.75
71117;SHT31;58775;46.992;9.518;2023-08-30T14:15:05;19.54;70.09
71117;SHT31;58775;46.992;9.518;2023-08-30T14:17:06;19.51;71.49
71117;SHT31;58775;46.992;9.518;2023-08-30T14:19:07;19.28;73.89
71117;SHT31;58775;46.992;9.518;2023-08-30T14:21:08;19.24;70.59
71117;SHT31;58775;46.992;9.518;2023-08-30T14:23:20;19.14;74.63
71117;SHT31;58775;46.992;9.518;2023-08-30T14:25:42;18.97;70.96
71117;SHT31;58775;46.992;9.518;2023-08-30T14:30:39;19.18;71.59
71117;SHT31;58775;46.992;9.518;2023-08-30T14:33:15;19.32;72.67
71117;SHT31;58775;46.992;9.518;2023-08-30T14:35:37;19.48;68.03
71117;SHT31;58775;46.992;9.518;2023-08-30T14:38:03;19.00;65.27
71117;SHT31;58775;46.992;9.518;2023-08-30T14:51:28;18.56;76.29
71117;SHT31;58775;46.992;9.518;2023-08-30T14:57:24;19.07;73.70
71117;SHT31;58775;46.992;9.518;2023-08-30T15:24:08;19.31;73.22
71117;SHT31;58775;46.992;9.518;2023-08-30T15:29:44;18.88;76.84
71117;SHT31;58775;46.992;9.518;2023-08-30T15:31:46;18.75;76.73
71117;SHT31;58775;46.992;9.518;2023-08-30T15:33:51;18.60;76.84
71117;SHT31;58775;46.992;9.518;2023-08-30T15:35:51;18.60;77.40
71117;SHT31;58775;46.992;9.518;2023-08-30T15:37:52;18.67;76.74
71117;SHT31;58775;46.992;9.518;2023-08-30T15:40:00;18.26;75.59
71117;SHT31;58775;46.992;9.518;2023-08-30T15:42:05;18.10;76.72
71117;SHT31;58775;46.992;9.518;2023-08-30T15:44:06;17.98;78.12
71117;SHT31;58775;46.992;9.518;2023-08-30T15:46:08;17.98;77.28
71117;SHT31;58775;46.992;9.518;2023-08-30T15:48:09;17.99;76.98
71117;SHT31;58775;46.992;9.518;2023-08-30T15:50:10;17.52;79.17
71117;SHT31;58775;46.992;9.518;2023-08-30T15:52:12;17.28;79.80
71117;SHT31;58775;46.992;9.518;2023-08-30T15:54:13;17.38;80.79
71117;SHT31;58775;46.992;9.518;2023-08-30T15:56:15;17.54;79.09
71117;SHT31;58775;46.992;9.518;2023-08-30T15:58:17;17.48;80.14
71117;SHT31;58775;46.992;9.518;2023-08-30T16:00:18;17.45;81.36
71117;SHT31;58775;46.992;9.518;2023-08-30T16:02:22;17.54;79.18
71117;SHT31;58775;46.992;9.518;2023-08-30T16:04:23;17.50;78.72
71117;SHT31;58775;46.992;9.518;2023-08-30T16:06:24;17.26;80.78
71117;SHT31;58775;46.992;9.518;2023-08-30T16:08:25;17.03;82.75
71117;SHT31;58775;46.992;9.518;2023-08-30T16:10:28;17.09;81.52
71117;SHT31;58775;46.992;9.518;2023-08-30T16:12:29;17.20;81.06
71117;SHT31;58775;46.992;9.518;2023-08-30T16:14:30;17.02;81.96
71117;SHT31;58775;46.992;9.518;2023-08-30T16:16:31;16.81;82.83
71117;SHT31;58775;46.992;9.518;2023-08-30T16:18:32;16.69;83.24
71117;SHT31;58775;46.992;9.518;2023-08-30T16:20:33;16.63;82.63
71117;SHT31;58775;46.992;9.518;2023-08-30T16:22:35;16.70;83.10
71117;SHT31;58775;46.992;9.518;2023-08-30T16:24:35;16.91;81.77
71117;SHT31;58775;46.992;9.518;2023-08-30T16:26:42;16.97;82.01
71117;SHT31;58775;46.992;9.518;2023-08-30T16:28:49;16.83;83.26
71117;SHT31;58775;46.992;9.518;2023-08-30T16:31:06;16.96;83.40
71117;SHT31;58775;46.992;9.518;2023-08-30T16:33:16;16.89;84.17
71117;SHT31;58775;46.992;9.518;2023-08-30T16:35:22;16.99;82.75
71117;SHT31;58775;46.992;9.518;2023-08-30T16:37:35;16.91;82.09
71117;SHT31;58775;46.992;9.518;2023-08-30T16:39:37;16.91;83.75
71117;SHT31;58775;46.992;9.518;2023-08-30T16:41:38;16.96;83.34
71117;SHT31;58775;46.992;9.518;2023-08-30T16:43:39;16.99;83.12
71117;SHT31;58775;46.992;9.518;2023-08-30T16:45:40;17.03;82.00
71117;SHT31;58775;46.992;9.518;2023-08-30T16:47:42;16.93;81.42
71117;SHT31;58775;46.992;9.518;2023-08-30T17:17:28;16.33;84.05
71117;SHT31;58775;46.992;9.518;2023-08-30T17:19:31;16.45;83.39
71117;SHT31;58775;46.992;9.518;2023-08-30T17:21:38;16.45;83.63
71117;SHT31;58775;46.992;9.518;2023-08-30T17:23:48;16.41;84.31
71117;SHT31;58775;46.992;9.518;2023-08-30T17:25:52;16.32;84.34
71117;SHT31;58775;46.992;9.518;2023-08-30T17:27:52;16.12;84.97
71117;SHT31;58775;46.992;9.518;2023-08-30T17:30:15;16.01;85.22
71117;SHT31;58775;46.992;9.518;2023-08-30T18:02:06;15.50;85.11
71117;SHT31;58775;46.992;9.518;2023-08-30T18:04:10;15.46;85.20
71117;SHT31;58775;46.992;9.518;2023-08-30T18:26:50;14.81;87.72
71117;SHT31;58775;46.992;9.518;2023-08-30T18:28:51;14.74;87.90
71117;SHT31;58775;46.992;9.518;2023-08-30T18:30:54;14.91;87.55
71117;SHT31;58775;46.992;9.518;2023-08-30T18:32:55;14.95;86.42
71117;SHT31;58775;46.992;9.518;2023-08-30T18:34:57;15.05;86.02
71117;SHT31;58775;46.992;9.518;2023-08-30T18:36:58;14.91;87.62
71117;SHT31;58775;46.992;9.518;2023-08-30T18:39:01;14.82;88.12
71117;SHT31;58775;46.992;9.518;2023-08-30T18:41:04;14.72;87.09
71117;SHT31;58775;46.992;9.518;2023-08-30T18:43:09;14.71;86.70
71117;SHT31;58775;46.992;9.518;2023-08-30T18:45:47;14.67;86.83
71117;SHT31;58775;46.992;9.518;2023-08-30T18:47:48;14.63;87.98
71117;SHT31;58775;46.992;9.518;2023-08-30T18:49:57;14.47;88.34
